Time;durP1;ratioP1;P1;durP2;ratioP2;P2;SDS_P1;SDS_P2;PMS_P1;PMS_P2;Temp;Humidity;BMP_temperature;BMP_pressure;BME280_temperature;BME280_humidity;BME280_pressure;Samples;Min_cycle;Max_cycle;Signal;HPM_P1;HPM_P2
2023/09/20 00:01:46;;;;;;;2.05;1.23;;;19.80;40.20;;;;;;4976519;28;20462;-52
2023/09/20 00:04:12;;;;;;;1.10;0.60;;;19.80;40.50;;;;;;4976736;28;20180;-51
2023/09/20 00:06:38;;;;;;;1.55;1.05;;;19.80;40.70;;;;;;4976432;28;20461;-51
2023/09/20 00:09:05;;;;;;;1.10;0.50;;;19.80;40.50;;;;;;4976453;28;20271;-51
2023/09/20 00:11:30;;;;;;;1.00;0.40;;;19.80;40.40;;;;;;4976237;28;20312;-49
2023/09/20 00:13:58;;;;;;;1.10;0.60;;;19.70;40.80;;;;;;4976627;28;20445;-49
2023/09/20 00:16:24;;;;;;;2.07;1.07;;;19.80;40.70;;;;;;4976589;28;20200;-51
2023/09/20 00:18:50;;;;;;;1.10;0.60;;;19.70;40.90;;;;;;4976415;28;20505;-51
2023/09/20 00:21:16;;;;;;;1.40;0.87;;;19.70;41.00;;;;;;4976130;28;20419;-50
2023/09/20 00:23:42;;;;;;;1.20;0.70;;;19.70;41.10;;;;;;4976209;28;20902;-51
2023/09/20 00:26:08;;;;;;;1.15;0.75;;;19.60;41.20;;;;;;4976034;28;20243;-49
2023/09/20 00:28:35;;;;;;;1.00;0.40;;;19.60;41.10;;;;;;4976130;28;20542;-51
2023/09/20 00:31:03;;;;;;;1.10;0.60;;;19.70;41.00;;;;;;4976264;28;20462;-51
2023/09/20 00:33:29;;;;;;;1.23;0.63;;;19.70;41.20;;;;;;4976034;28;20180;-52
2023/09/20 00:35:55;;;;;;;1.20;0.73;;;19.70;41.20;;;;;;4976034;28;20263;-51
2023/09/20 00:38:21;;;;;;;1.07;0.53;;;19.70;41.30;;;;;;4975960;28;20263;-51
2023/09/20 00:40:47;;;;;;;1.00;0.50;;;19.70;41.00;;;;;;4975987;28;20435;-51
2023/09/20 00:43:13;;;;;;;1.20;0.88;;;19.70;41.00;;;;;;4975957;28;20176;-51
2023/09/20 00:45:40;;;;;;;1.10;0.57;;;19.70;40.90;;;;;;4975848;28;20200;-51
2023/09/20 00:48:07;;;;;;;1.05;0.50;;;19.80;40.90;;;;;;4974654;28;20514;-49
2023/09/20 00:50:35;;;;;;;1.03;0.47;;;19.70;41.10;;;;;;4975821;28;20230;-51
2023/09/20 00:53:06;;;;;;;1.00;0.50;;;19.80;40.80;;;;;;4975524;28;20415;-51
2023/09/20 00:55:35;;;;;;;1.10;0.70;;;19.80;40.60;;;;;;4975987;28;20176;-50
2023/09/20 00:58:16;;;;;;;1.00;0.43;;;19.80;41.20;;;;;;4975847;28;20951;-49
2023/09/20 01:00:43;;;;;;;1.07;0.60;;;19.70;41.40;;;;;;4975641;28;20907;-51
2023/09/20 01:03:15;;;;;;;1.10;0.90;;;19.70;41.30;;;;;;4975366;28;20447;-51
2023/09/20 01:05:42;;;;;;;1.00;0.40;;;19.60;41.10;;;;;;4975390;28;20479;-51
2023/09/20 01:08:08;;;;;;;1.10;0.65;;;19.60;41.30;;;;;;4975604;28;20218;-52
2023/09/20 01:10:38;;;;;;;1.40;0.75;;;19.60;41.70;;;;;;4975533;28;20179;-51
2023/09/20 01:13:05;;;;;;;1.00;0.30;;;19.50;41.60;;;;;;4975591;28;20535;-50
2023/09/20 01:15:33;;;;;;;1.00;0.40;;;19.50;41.70;;;;;;4975333;28;20462;-51
2023/09/20 01:17:59;;;;;;;1.10;0.60;;;19.50;41.80;;;;;;4975204;28;20610;-51
2023/09/20 01:20:26;;;;;;;1.20;0.80;;;19.50;41.70;;;;;;4975333;28;20172;-51
2023/09/20 01:22:56;;;;;;;1.08;0.40;;;19.50;41.60;;;;;;4975362;28;20595;-52
2023/09/20 01:25:28;;;;;;;1.65;0.98;;;19.50;42.50;;;;;;4975132;28;20194;-51
2023/09/20 01:27:56;;;;;;;1.10;0.50;;;19.50;41.60;;;;;;4975261;28;20226;-51
2023/09/20 01:30:28;;;;;;;1.15;0.70;;;19.50;41.30;;;;;;4975115;28;20243;-49
2023/09/20 01:32:56;;;;;;;1.38;0.85;;;19.60;41.40;;;;;;4975154;28;20175;-51
2023/09/20 01:35:23;;;;;;;1.10;0.70;;;19.60;41.40;;;;;;4975040;28;20180;-51
2023/09/20 01:37:52;;;;;;;1.30;0.70;;;19.60;41.70;;;;;;4974878;28;20214;-51
2023/09/20 01:40:23;;;;;;;1.00;0.40;;;19.60;41.40;;;;;;4974942;28;20411;-48
2023/09/20 01:42:49;;;;;;;1.10;0.50;;;19.70;41.60;;;;;;4974621;28;20207;-50
2023/09/20 01:45:19;;;;;;;1.75;0.80;;;19.60;41.30;;;;;;4974733;28;20200;-51
2023/09/20 01:47:53;;;;;;;1.00;0.40;;;19.70;41.30;;;;;;4974925;28;20339;-49
2023/09/20 01:50:21;;;;;;;1.00;0.50;;;19.70;41.10;;;;;;4974973;28;20778;-50
2023/09/20 01:52:50;;;;;;;1.73;0.60;;;19.70;41.10;;;;;;4974479;28;20838;-52
2023/09/20 01:55:18;;;;;;;1.00;0.40;;;19.70;41.70;;;;;;4974587;28;20439;-52
2023/09/20 01:57:45;;;;;;;1.10;0.50;;;19.60;41.40;;;;;;4974300;28;20211;-51
2023/09/20 02:03:17;;;;;;;1.20;0.65;;;19.60;41.60;;;;;;4952708;28;20184;-51
2023/09/20 02:05:49;;;;;;;1.57;1.47;;;19.60;41.70;;;;;;4952709;29;20697;-51
2023/09/20 02:08:16;;;;;;;1.30;0.70;;;19.60;41.60;;;;;;4952751;28;20961;-52
2023/09/20 02:10:44;;;;;;;1.05;0.55;;;19.60;41.60;;;;;;4952583;28;20325;-49
2023/09/20 02:13:10;;;;;;;1.77;0.97;;;19.60;41.70;;;;;;4952528;29;20204;-50
2023/09/20 02:15:36;;;;;;;1.10;0.73;;;19.60;42.00;;;;;;4952625;29;20447;-51
2023/09/20 02:18:06;;;;;;;1.00;0.50;;;19.60;42.10;;;;;;4952494;28;20752;-50
2023/09/20 02:20:36;;;;;;;1.20;0.70;;;19.60;41.90;;;;;;4952459;28;20181;-51
2023/09/20 02:23:04;;;;;;;1.30;0.50;;;19.60;41.80;;;;;;4952394;29;20431;-51
2023/09/20 02:25:29;;;;;;;1.20;0.90;;;19.60;42.20;;;;;;4952219;29;20998;-52
2023/09/20 02:27:59;;;;;;;1.00;0.57;;;19.60;42.00;;;;;;4952414;29;20196;-52
2023/09/20 02:30:35;;;;;;;1.58;1.00;;;19.60;42.10;;;;;;4952299;29;20217;-52
2023/09/20 02:33:06;;;;;;;1.33;0.70;;;19.60;41.80;;;;;;4952139;29;20180;-52
2023/09/20 02:35:33;;;;;;;1.10;0.60;;;19.60;42.40;;;;;;4952357;29;20177;-51
2023/09/20 02:38:04;;;;;;;1.10;0.53;;;19.60;42.10;;;;;;4969552;28;20446;-52
2023/09/20 02:40:30;;;;;;;1.00;0.50;;;19.60;42.10;;;;;;4973915;28;20466;-52
2023/09/20 02:42:59;;;;;;;1.80;1.00;;;19.60;42.10;;;;;;4973650;28;20594;-52
2023/09/20 02:45:28;;;;;;;1.10;0.70;;;19.60;42.10;;;;;;4973594;28;20674;-51
2023/09/20 02:47:55;;;;;;;1.10;0.60;;;19.60;42.10;;;;;;4973860;28;20435;-50
2023/09/20 02:50:25;;;;;;;1.10;0.52;;;19.60;42.10;;;;;;4973789;28;20435;-51
2023/09/20 02:52:52;;;;;;;1.00;0.47;;;19.60;42.90;;;;;;4973532;28;20207;-49
2023/09/20 02:55:20;;;;;;;1.10;0.60;;;19.60;42.20;;;;;;4973513;28;20523;-51
2023/09/20 02:57:52;;;;;;;1.10;0.70;;;19.60;42.20;;;;;;4973415;28;20983;-50
2023/09/20 03:00:28;;;;;;;1.10;0.70;;;19.60;42.30;;;;;;4973531;28;20280;-51
2023/09/20 03:02:58;;;;;;;1.05;0.73;;;19.60;42.40;;;;;;4973399;28;20174;-51
2023/09/20 03:05:26;;;;;;;1.63;1.07;;;19.60;42.30;;;;;;4973568;28;20250;-51
2023/09/20 03:07:55;;;;;;;1.27;0.95;;;19.60;42.10;;;;;;4973386;28;20779;-51
2023/09/20 03:10:23;;;;;;;1.10;0.63;;;19.60;42.60;;;;;;4972662;28;20180;-50
2023/09/20 03:12:54;;;;;;;1.00;0.40;;;19.60;42.50;;;;;;4973201;28;20172;-50
2023/09/20 03:15:22;;;;;;;1.30;0.68;;;19.60;42.50;;;;;;4973465;28;20411;-51
2023/09/20 03:17:54;;;;;;;1.30;0.70;;;19.60;42.40;;;;;;4973355;28;20251;-50
2023/09/20 03:20:23;;;;;;;1.10;0.57;;;19.60;42.40;;;;;;4973230;28;20175;-52
2023/09/20 03:22:54;;;;;;;1.05;0.50;;;19.50;42.40;;;;;;4972995;28;20184;-52
2023/09/20 03:25:21;;;;;;;1.10;0.70;;;19.50;42.60;;;;;;4973233;28;20203;-52
2023/09/20 03:27:48;;;;;;;1.30;0.60;;;19.50;42.70;;;;;;4973319;28;20286;-52
2023/09/20 03:30:20;;;;;;;1.00;0.40;;;19.50;42.80;;;;;;4973250;28;20203;-52
2023/09/20 03:32:50;;;;;;;1.00;0.50;;;19.50;42.80;;;;;;4972917;28;20213;-51
2023/09/20 03:35:16;;;;;;;1.50;1.25;;;19.40;42.90;;;;;;4973170;28;20736;-51
2023/09/20 03:37:43;;;;;;;1.00;0.50;;;19.40;43.60;;;;;;4973208;28;20203;-51
2023/09/20 03:40:16;;;;;;;1.00;0.50;;;19.40;42.80;;;;;;4973390;28;20611;-51
2023/09/20 03:42:42;;;;;;;1.20;0.60;;;19.40;43.30;;;;;;4972961;28;20176;-52
2023/09/20 03:45:13;;;;;;;1.10;0.50;;;19.40;43.30;;;;;;4973027;28;20262;-52
2023/09/20 03:47:48;;;;;;;1.20;0.50;;;19.30;43.20;;;;;;4972977;28;20431;-51
2023/09/20 03:50:18;;;;;;;1.10;0.70;;;19.30;43.60;;;;;;4972955;28;20203;-51
2023/09/20 03:52:44;;;;;;;1.00;0.50;;;19.30;43.20;;;;;;4972946;28;20183;-52
2023/09/20 03:55:10;;;;;;;1.30;0.80;;;19.30;43.20;;;;;;4973004;28;20188;-52
2023/09/20 03:57:38;;;;;;;1.00;0.40;;;19.30;43.00;;;;;;4972881;28;20798;-52
2023/09/20 04:00:11;;;;;;;1.08;0.60;;;19.40;43.10;;;;;;4972916;28;20403;-51
2023/09/20 04:02:38;;;;;;;1.20;0.73;;;19.40;42.80;;;;;;4972729;28;20187;-52
2023/09/20 04:05:11;;;;;;;1.05;0.60;;;19.40;43.10;;;;;;4972786;28;20550;-49
2023/09/20 04:07:37;;;;;;;1.08;0.55;;;19.40;42.90;;;;;;4972919;28;20204;-52
2023/09/20 04:10:03;;;;;;;1.10;0.60;;;19.50;43.20;;;;;;4972851;28;20187;-50
2023/09/20 04:12:29;;;;;;;1.40;0.50;;;19.40;43.00;;;;;;4972622;28;20180;-52
2023/09/20 04:14:55;;;;;;;1.00;0.47;;;19.40;42.80;;;;;;4972710;28;20184;-52
2023/09/20 04:17:22;;;;;;;1.00;0.50;;;19.50;43.00;;;;;;4972627;28;20192;-51
2023/09/20 04:19:48;;;;;;;2.08;0.52;;;19.50;42.90;;;;;;4971517;28;20168;-52
2023/09/20 04:22:14;;;;;;;1.00;0.50;;;19.50;43.00;;;;;;4974604;28;20187;-52
2023/09/20 04:24:39;;;;;;;1.00;0.35;;;19.40;43.10;;;;;;4976228;28;20418;-52
2023/09/20 04:27:05;;;;;;;1.00;0.40;;;19.40;43.20;;;;;;4976113;28;20215;-49
2023/09/20 04:29:31;;;;;;;1.07;0.60;;;19.40;43.20;;;;;;4976306;28;20195;-52
2023/09/20 04:31:57;;;;;;;1.02;0.50;;;19.40;43.70;;;;;;4976142;28;20470;-52
2023/09/20 04:34:23;;;;;;;1.00;0.60;;;19.30;43.50;;;;;;4976129;28;20278;-51
2023/09/20 04:36:51;;;;;;;1.55;1.05;;;19.40;43.50;;;;;;4975926;28;20201;-51
2023/09/20 04:39:17;;;;;;;1.10;0.68;;;19.30;43.60;;;;;;4976165;28;20188;-51
2023/09/20 04:41:43;;;;;;;1.00;0.43;;;19.30;43.70;;;;;;4975890;28;20605;-51
2023/09/20 04:44:08;;;;;;;1.00;0.50;;;19.30;43.60;;;;;;4975849;28;20168;-51
2023/09/20 04:46:38;;;;;;;1.20;0.50;;;19.30;43.50;;;;;;4975991;28;20527;-50
2023/09/20 04:49:05;;;;;;;1.13;0.50;;;19.30;43.40;;;;;;4976059;28;20181;-49
2023/09/20 04:51:31;;;;;;;1.00;0.40;;;19.30;43.40;;;;;;4975700;28;20184;-52
2023/09/20 04:53:58;;;;;;;1.00;0.43;;;19.40;43.40;;;;;;4975784;28;20195;-50
2023/09/20 04:56:26;;;;;;;1.02;0.50;;;19.40;43.30;;;;;;4975707;28;20325;-52
2023/09/20 04:58:52;;;;;;;1.00;0.50;;;19.50;43.50;;;;;;4975597;28;20654;-51
2023/09/20 05:01:18;;;;;;;0.97;0.30;;;19.50;43.80;;;;;;4975617;28;20215;-50
2023/09/20 05:03:44;;;;;;;1.00;0.50;;;19.50;43.30;;;;;;4975772;28;20411;-52
2023/09/20 05:06:09;;;;;;;1.00;0.40;;;19.60;43.40;;;;;;4975455;28;20207;-49
2023/09/20 05:08:36;;;;;;;1.10;0.40;;;19.50;43.40;;;;;;4975654;28;20770;-50
2023/09/20 05:11:04;;;;;;;0.98;0.30;;;19.60;43.80;;;;;;4975437;28;20199;-51
2023/09/20 05:13:30;;;;;;;1.02;0.60;;;19.60;44.20;;;;;;4975178;28;20182;-50
2023/09/20 05:15:56;;;;;;;1.00;0.40;;;19.60;43.60;;;;;;4975222;28;20647;-50
2023/09/20 05:18:22;;;;;;;1.40;1.20;;;19.60;43.60;;;;;;4975313;28;20306;-51
2023/09/20 05:20:49;;;;;;;1.00;0.40;;;19.60;43.50;;;;;;4975294;28;20202;-51
2023/09/20 05:23:15;;;;;;;1.20;0.63;;;19.60;43.90;;;;;;4975021;28;20699;-52
2023/09/20 05:25:40;;;;;;;1.03;0.60;;;19.60;43.50;;;;;;4975044;28;20204;-49
2023/09/20 05:28:06;;;;;;;1.00;0.40;;;19.60;44.60;;;;;;4974968;28;20446;-50
2023/09/20 05:30:32;;;;;;;1.00;0.47;;;19.60;43.70;;;;;;4975007;28;20239;-52
2023/09/20 05:32:59;;;;;;;1.00;0.43;;;19.60;43.90;;;;;;4974372;28;20219;-53
2023/09/20 05:35:26;;;;;;;1.10;0.50;;;19.70;43.90;;;;;;4974978;28;20180;-50
2023/09/20 05:37:52;;;;;;;1.00;0.50;;;19.80;43.70;;;;;;4973627;28;20200;-53
2023/09/20 05:40:17;;;;;;;1.00;0.40;;;19.80;43.60;;;;;;4974839;28;20187;-49
2023/09/20 05:42:45;;;;;;;1.20;0.80;;;19.90;43.40;;;;;;4974797;28;20184;-48
2023/09/20 05:45:12;;;;;;;2.13;0.40;;;19.90;43.70;;;;;;4974913;28;20255;-51
2023/09/20 05:47:40;;;;;;;1.10;0.60;;;20.00;43.50;;;;;;4974691;28;20283;-48
2023/09/20 05:50:07;;;;;;;1.00;0.50;;;20.00;43.60;;;;;;4974657;28;20172;-49
2023/09/20 05:52:33;;;;;;;1.00;0.50;;;20.00;43.50;;;;;;4974592;28;20239;-51
2023/09/20 05:54:58;;;;;;;1.83;1.10;;;20.10;43.60;;;;;;4973395;28;20176;-49
2023/09/20 05:57:27;;;;;;;1.00;0.30;;;20.30;43.60;;;;;;4974647;28;20187;-48
2023/09/20 05:59:54;;;;;;;1.10;0.50;;;20.40;43.40;;;;;;4974583;28;20459;-51
2023/09/20 06:02:20;;;;;;;1.25;0.90;;;20.50;43.40;;;;;;4974482;28;20176;-52
2023/09/20 06:04:46;;;;;;;1.20;0.60;;;20.60;43.10;;;;;;4974427;28;20179;-49
2023/09/20 06:07:12;;;;;;;1.63;0.70;;;20.70;43.00;;;;;;4974301;28;20198;-52
2023/09/20 06:09:38;;;;;;;1.00;0.43;;;20.80;42.90;;;;;;4974245;28;20172;-48
2023/09/20 06:12:04;;;;;;;1.00;0.40;;;21.00;42.60;;;;;;4974369;28;20171;-50
2023/09/20 06:14:29;;;;;;;1.10;0.50;;;21.10;42.80;;;;;;4974268;28;20176;-50
2023/09/20 06:16:55;;;;;;;1.10;0.67;;;21.20;42.60;;;;;;4974126;28;20196;-52
2023/09/20 06:19:21;;;;;;;1.00;0.40;;;21.20;42.70;;;;;;4974151;28;20239;-49
2023/09/20 06:21:47;;;;;;;1.00;0.40;;;21.20;42.40;;;;;;4973964;28;20178;-49
2023/09/20 06:24:13;;;;;;;1.25;0.50;;;21.30;42.40;;;;;;4974110;28;20223;-51
2023/09/20 06:26:43;;;;;;;1.07;0.47;;;21.30;42.00;;;;;;4973844;28;20624;-48
2023/09/20 06:29:09;;;;;;;1.10;0.60;;;21.30;42.20;;;;;;4974250;28;20431;-50
2023/09/20 06:31:38;;;;;;;1.20;0.97;;;21.30;42.30;;;;;;4973959;28;20204;-51
2023/09/20 06:34:05;;;;;;;2.20;0.57;;;21.30;42.30;;;;;;4973946;28;20403;-49
2023/09/20 06:36:30;;;;;;;1.20;0.60;;;21.30;42.20;;;;;;4973773;28;20424;-49
2023/09/20 06:38:57;;;;;;;1.00;0.40;;;21.30;42.30;;;;;;4973846;28;20932;-51
2023/09/20 06:41:23;;;;;;;1.20;0.50;;;21.40;42.30;;;;;;4973662;28;20191;-50
2023/09/20 06:43:49;;;;;;;1.10;0.50;;;21.40;42.40;;;;;;4973992;28;20411;-49
2023/09/20 06:46:15;;;;;;;1.00;0.40;;;21.40;42.50;;;;;;4972717;28;20517;-51
2023/09/20 06:48:41;;;;;;;1.17;0.70;;;21.40;42.50;;;;;;4973696;28;20196;-49
2023/09/20 06:51:09;;;;;;;1.00;0.40;;;21.50;42.70;;;;;;4973577;28;20176;-49
2023/09/20 06:53:35;;;;;;;1.00;0.37;;;21.60;42.70;;;;;;4973395;28;20191;-52
2023/09/20 06:56:01;;;;;;;1.10;0.50;;;21.70;42.80;;;;;;4973476;28;20416;-50
2023/09/20 06:58:27;;;;;;;1.00;0.40;;;21.80;42.60;;;;;;4973614;28;20400;-50
2023/09/20 07:00:52;;;;;;;1.00;0.40;;;22.00;42.80;;;;;;4973478;28;20179;-51
2023/09/20 07:03:19;;;;;;;1.10;0.50;;;22.10;42.50;;;;;;4973312;28;20196;-49
2023/09/20 07:05:45;;;;;;;1.23;0.67;;;22.30;42.20;;;;;;4973281;28;20678;-49
2023/09/20 07:08:11;;;;;;;1.10;0.60;;;22.50;42.10;;;;;;4973256;28;20441;-51
2023/09/20 07:10:41;;;;;;;1.20;0.87;;;22.60;41.80;;;;;;4973299;28;20408;-50
2023/09/20 07:13:09;;;;;;;1.03;0.40;;;22.80;41.30;;;;;;4973365;28;20434;-49
2023/09/20 07:15:36;;;;;;;1.07;0.50;;;22.90;40.60;;;;;;4973412;28;20829;-49
2023/09/20 07:18:11;;;;;;;1.00;0.40;;;23.00;40.30;;;;;;4973119;28;20481;-49
2023/09/20 07:20:41;;;;;;;1.00;0.40;;;23.10;40.50;;;;;;4973219;28;20407;-49
2023/09/20 07:23:13;;;;;;;1.00;0.40;;;23.20;40.30;;;;;;4973313;28;20423;-51
2023/09/20 07:25:39;;;;;;;1.00;0.40;;;23.40;40.00;;;;;;4972996;28;21024;-48
2023/09/20 07:28:06;;;;;;;1.10;0.40;;;23.50;39.30;;;;;;4973237;28;20478;-50
2023/09/20 07:30:39;;;;;;;1.00;0.40;;;23.60;39.90;;;;;;4973099;28;20412;-51
2023/09/20 07:33:11;;;;;;;1.20;0.50;;;23.70;39.10;;;;;;4972912;28;21117;-49
2023/09/20 07:35:46;;;;;;;1.87;1.00;;;23.80;38.90;;;;;;4973291;28;20419;-49
2023/09/20 07:38:17;;;;;;;2.23;0.63;;;23.80;38.80;;;;;;4973067;28;20434;-49
2023/09/20 07:40:44;;;;;;;1.00;0.40;;;23.90;39.00;;;;;;4973112;28;20826;-52
2023/09/20 07:43:10;;;;;;;1.00;0.50;;;24.10;37.80;;;;;;4972959;28;20418;-49
2023/09/20 07:45:41;;;;;;;1.97;0.70;;;24.10;37.10;;;;;;4972948;28;20476;-49
2023/09/20 07:48:12;;;;;;;1.17;0.67;;;24.20;37.40;;;;;;4973130;28;20427;-51
2023/09/20 07:50:50;;;;;;;1.10;0.40;;;24.30;37.80;;;;;;4973108;28;20403;-50
2023/09/20 07:53:21;;;;;;;1.00;0.40;;;24.40;37.90;;;;;;4972925;28;20941;-48
2023/09/20 07:56:01;;;;;;;1.10;0.50;;;24.50;38.00;;;;;;4972859;28;20582;-48
2023/09/20 07:58:28;;;;;;;1.10;0.70;;;24.60;38.00;;;;;;4976735;28;20933;-49
2023/09/20 08:00:56;;;;;;;1.07;0.47;;;24.70;37.80;;;;;;4976719;28;20455;-50
2023/09/20 08:03:22;;;;;;;1.00;0.43;;;24.80;37.70;;;;;;4976539;28;20412;-50
2023/09/20 08:05:48;;;;;;;1.07;0.50;;;25.00;37.60;;;;;;4976636;28;20439;-49
2023/09/20 08:08:14;;;;;;;1.27;0.50;;;25.00;36.20;;;;;;4976464;28;20957;-49
2023/09/20 08:10:41;;;;;;;1.03;0.50;;;25.00;37.10;;;;;;4976848;28;20522;-52
2023/09/20 08:13:07;;;;;;;1.10;0.57;;;25.10;36.40;;;;;;4976543;28;20266;-48
2023/09/20 08:15:38;;;;;;;1.00;0.40;;;25.10;35.40;;;;;;4976556;28;20414;-51
2023/09/20 08:20:48;;;;;;;1.30;0.80;;;25.20;37.00;;;;;;4976271;28;20410;-53
2023/09/20 09:01:48;;;;;;;1.07;0.43;;;26.30;35.40;;;;;;4975781;28;20406;-51
2023/09/20 09:04:17;;;;;;;1.10;0.50;;;26.30;34.10;;;;;;4975599;28;20415;-48
2023/09/20 09:06:44;;;;;;;1.40;0.70;;;26.40;35.30;;;;;;4975384;28;20466;-50
2023/09/20 09:09:10;;;;;;;1.00;0.50;;;26.50;33.40;;;;;;4974474;28;20755;-52
2023/09/20 09:11:36;;;;;;;1.43;0.83;;;26.50;33.80;;;;;;4975432;28;20421;-49
2023/09/20 09:14:03;;;;;;;1.00;0.40;;;26.50;34.20;;;;;;4975417;28;20986;-50
2023/09/20 09:16:33;;;;;;;1.00;0.40;;;26.60;34.10;;;;;;4975330;28;20438;-52
2023/09/20 09:18:59;;;;;;;1.03;0.40;;;26.60;34.70;;;;;;4975326;28;20438;-52
2023/09/20 09:21:26;;;;;;;1.00;0.40;;;26.70;34.10;;;;;;4975006;28;20416;-50
2023/09/20 09:23:52;;;;;;;1.03;0.40;;;26.80;34.10;;;;;;4975466;28;20418;-48
2023/09/20 09:26:18;;;;;;;1.10;0.60;;;27.00;34.00;;;;;;4975060;28;20845;-52
2023/09/20 09:28:47;;;;;;;1.00;0.50;;;27.00;33.80;;;;;;4975357;28;20198;-50
2023/09/20 09:31:14;;;;;;;1.00;0.40;;;27.00;34.30;;;;;;4975017;28;20176;-49
2023/09/20 09:33:41;;;;;;;1.10;0.53;;;27.20;34.70;;;;;;4974940;28;20399;-51
2023/09/20 09:36:07;;;;;;;1.00;0.50;;;27.30;32.80;;;;;;4974908;28;20415;-52
2023/09/20 09:38:34;;;;;;;1.07;0.40;;;27.40;33.40;;;;;;4975167;28;20411;-49
2023/09/20 09:41:02;;;;;;;1.10;0.40;;;27.50;33.60;;;;;;4974874;28;20835;-53
2023/09/20 09:43:29;;;;;;;1.30;0.70;;;27.60;33.90;;;;;;4974768;28;20420;-49
2023/09/20 09:46:05;;;;;;;1.00;0.30;;;27.70;33.70;;;;;;4974696;28;20487;-51
2023/09/20 09:48:32;;;;;;;1.07;0.40;;;27.80;33.40;;;;;;4974684;28;20766;-51
2023/09/20 09:50:59;;;;;;;1.10;0.50;;;27.90;33.10;;;;;;4974613;28;20980;-49
2023/09/20 09:53:26;;;;;;;1.00;0.40;;;28.00;33.70;;;;;;4974707;28;20465;-52
2023/09/20 09:55:54;;;;;;;1.00;0.40;;;28.00;31.80;;;;;;4974756;28;20410;-52
2023/09/20 09:58:20;;;;;;;1.10;0.57;;;28.10;32.50;;;;;;4974582;28;20424;-50
2023/09/20 10:00:53;;;;;;;1.00;0.40;;;28.10;33.00;;;;;;4974505;28;20416;-50
2023/09/20 10:03:32;;;;;;;1.00;0.40;;;28.10;33.10;;;;;;4974320;28;20238;-52
2023/09/20 10:06:24;;;;;;;1.10;0.40;;;28.10;31.10;;;;;;4974337;28;20455;-49
2023/09/20 10:08:54;;;;;;;1.17;0.47;;;28.10;32.80;;;;;;4969194;28;20506;-51
2023/09/20 10:11:25;;;;;;;1.00;0.30;;;28.10;31.10;;;;;;4974152;28;20414;-51
2023/09/20 10:13:52;;;;;;;1.00;0.40;;;28.10;31.80;;;;;;4974319;28;20936;-48
2023/09/20 10:16:18;;;;;;;1.30;0.97;;;28.20;33.10;;;;;;4974429;28;20427;-54
2023/09/20 10:18:53;;;;;;;1.10;0.50;;;28.30;32.80;;;;;;4974295;28;20439;-49
2023/09/20 10:21:25;;;;;;;1.03;0.50;;;28.40;32.90;;;;;;4974035;28;20438;-51
2023/09/20 10:23:58;;;;;;;1.00;0.40;;;28.50;32.40;;;;;;4974083;28;20415;-50
2023/09/20 10:26:24;;;;;;;1.10;0.60;;;28.60;31.30;;;;;;4973870;28;20466;-52
2023/09/20 10:28:52;;;;;;;1.10;0.43;;;28.70;31.90;;;;;;4974005;28;20399;-50
2023/09/20 10:31:19;;;;;;;2.40;0.60;;;28.70;32.40;;;;;;4973954;28;20412;-49
2023/09/20 10:33:55;;;;;;;1.20;0.53;;;28.80;29.50;;;;;;4973949;28;20411;-51
2023/09/20 10:36:29;;;;;;;1.57;0.70;;;28.80;30.90;;;;;;4973738;28;20439;-49
2023/09/20 10:39:21;;;;;;;1.60;0.70;;;28.80;30.60;;;;;;4973871;28;20423;-49
2023/09/20 10:41:52;;;;;;;1.10;0.60;;;28.80;31.00;;;;;;4973649;28;20407;-49
2023/09/20 10:44:33;;;;;;;1.20;0.60;;;28.90;30.50;;;;;;4973839;28;20432;-48
2023/09/20 10:47:12;;;;;;;1.00;0.40;;;28.90;31.50;;;;;;4973470;28;20549;-50
2023/09/20 10:49:55;;;;;;;1.10;0.50;;;29.10;31.20;;;;;;4973866;28;20461;-52
2023/09/20 10:52:33;;;;;;;1.50;0.80;;;29.20;31.10;;;;;;4973610;28;20486;-49
2023/09/20 10:55:17;;;;;;;1.33;0.73;;;29.20;30.20;;;;;;4973606;28;20450;-51
2023/09/20 10:57:43;;;;;;;1.10;0.53;;;29.20;31.50;;;;;;4973424;28;21017;-51
2023/09/20 11:00:09;;;;;;;1.20;0.63;;;29.20;30.70;;;;;;4973561;28;20491;-50
2023/09/20 11:02:38;;;;;;;1.20;0.53;;;29.20;29.90;;;;;;4973267;28;20643;-48
2023/09/20 11:05:07;;;;;;;1.20;0.70;;;29.20;30.30;;;;;;4973346;28;20490;-51
2023/09/20 11:07:33;;;;;;;1.10;0.70;;;29.30;31.00;;;;;;4973291;28;20424;-51
2023/09/20 11:09:59;;;;;;;1.10;0.60;;;29.40;30.00;;;;;;4973605;28;20548;-51
2023/09/20 11:12:24;;;;;;;1.20;0.63;;;29.30;30.30;;;;;;4973187;28;20164;-51
2023/09/20 11:14:51;;;;;;;1.30;0.70;;;29.40;31.10;;;;;;4973355;28;20425;-48
2023/09/20 11:17:18;;;;;;;1.10;0.50;;;29.50;30.00;;;;;;4973322;28;20196;-54
2023/09/20 11:19:45;;;;;;;1.40;0.87;;;29.50;28.50;;;;;;4973304;28;20419;-50
2023/09/20 11:22:14;;;;;;;1.20;0.70;;;29.50;28.90;;;;;;4972951;28;20422;-50
2023/09/20 11:24:41;;;;;;;1.23;0.63;;;29.50;27.90;;;;;;4973249;28;20415;-51
2023/09/20 11:27:08;;;;;;;2.00;0.80;;;29.50;29.30;;;;;;4972942;28;20470;-50
2023/09/20 11:29:40;;;;;;;1.40;0.70;;;29.60;29.20;;;;;;4973214;28;20857;-52
2023/09/20 11:32:12;;;;;;;1.20;0.53;;;29.70;28.80;;;;;;4972343;28;20808;-52
2023/09/20 11:34:47;;;;;;;1.50;0.90;;;29.60;28.30;;;;;;4973133;28;20426;-50
2023/09/20 11:37:19;;;;;;;1.10;0.60;;;29.70;28.70;;;;;;4973206;28;20430;-52
2023/09/20 11:39:49;;;;;;;1.10;0.60;;;29.70;27.90;;;;;;4973116;28;20465;-48
2023/09/20 11:42:26;;;;;;;1.10;0.40;;;29.70;28.80;;;;;;4972782;28;20407;-49
2023/09/20 11:45:08;;;;;;;15.83;1.30;;;30.00;28.60;;;;;;4973043;28;20908;-52
2023/09/20 11:47:41;;;;;;;1.10;0.50;;;30.00;29.20;;;;;;4973124;28;20438;-53
2023/09/20 11:50:12;;;;;;;1.10;0.50;;;30.10;28.70;;;;;;4972913;28;20403;-53
2023/09/20 11:52:48;;;;;;;1.00;0.40;;;30.20;28.00;;;;;;4972948;28;20413;-49
2023/09/20 11:55:15;;;;;;;1.10;0.50;;;30.30;28.10;;;;;;4973079;28;20408;-50
2023/09/20 11:57:47;;;;;;;1.20;0.60;;;30.40;27.80;;;;;;4972794;28;20455;-52
2023/09/20 12:00:24;;;;;;;1.03;0.43;;;30.50;29.20;;;;;;4973115;28;20466;-49
2023/09/20 12:02:51;;;;;;;1.10;0.40;;;30.60;28.50;;;;;;4972950;28;20401;-52
2023/09/20 12:05:21;;;;;;;1.57;0.60;;;30.70;28.50;;;;;;4972767;28;20885;-49
2023/09/20 12:07:56;;;;;;;1.23;0.67;;;30.70;27.50;;;;;;4972848;28;20435;-51
2023/09/20 12:10:22;;;;;;;1.20;0.67;;;30.80;28.40;;;;;;4972989;28;20411;-51
2023/09/20 12:12:50;;;;;;;1.10;0.43;;;30.90;28.40;;;;;;4972688;28;20411;-50
2023/09/20 12:15:16;;;;;;;1.70;0.80;;;31.10;28.50;;;;;;4972902;28;20403;-52
2023/09/20 12:17:42;;;;;;;1.20;0.50;;;31.20;29.00;;;;;;4972811;28;20526;-49
2023/09/20 12:20:08;;;;;;;1.10;0.40;;;31.40;28.00;;;;;;4972700;28;20171;-49
2023/09/20 12:22:34;;;;;;;1.10;0.40;;;31.40;27.00;;;;;;4972426;28;20412;-53
2023/09/20 12:25:00;;;;;;;1.00;0.30;;;31.30;27.20;;;;;;4972628;28;20403;-49
2023/09/20 12:27:25;;;;;;;1.00;0.30;;;31.20;26.40;;;;;;4972605;28;20291;-50
2023/09/20 12:29:51;;;;;;;1.30;0.80;;;31.00;28.00;;;;;;4972759;28;20762;-49
2023/09/20 12:32:17;;;;;;;1.00;0.33;;;30.90;27.70;;;;;;4972546;28;20220;-48
2023/09/20 12:34:42;;;;;;;1.07;0.43;;;30.80;27.90;;;;;;4972728;28;20227;-51
2023/09/20 12:37:08;;;;;;;1.20;0.70;;;30.80;28.10;;;;;;4972485;28;20209;-49
2023/09/20 12:39:36;;;;;;;1.00;0.40;;;30.80;28.30;;;;;;4972530;28;20654;-51
2023/09/20 12:42:02;;;;;;;1.20;0.57;;;30.90;28.20;;;;;;4972468;28;20180;-52
2023/09/20 12:44:28;;;;;;;1.00;0.37;;;30.90;28.20;;;;;;4975028;28;20552;-51
2023/09/20 12:46:54;;;;;;;1.00;0.40;;;30.90;28.10;;;;;;4975857;28;20282;-53
2023/09/20 12:49:20;;;;;;;1.00;0.40;;;30.90;27.80;;;;;;4975986;28;20164;-50
2023/09/20 12:51:46;;;;;;;1.10;0.50;;;30.90;27.80;;;;;;4975603;28;20414;-50
2023/09/20 12:54:11;;;;;;;1.10;0.50;;;30.80;27.10;;;;;;4975895;28;20173;-50
2023/09/20 12:56:39;;;;;;;1.10;0.50;;;30.50;27.20;;;;;;4975777;28;20806;-51
2023/09/20 12:59:05;;;;;;;2.40;0.50;;;30.40;28.20;;;;;;4975800;28;20175;-52
2023/09/20 13:01:31;;;;;;;1.00;0.30;;;30.30;28.40;;;;;;4974407;28;20411;-52
2023/09/20 13:03:57;;;;;;;1.10;0.50;;;30.20;28.80;;;;;;4975680;28;20184;-48
2023/09/20 13:06:24;;;;;;;1.00;0.40;;;30.10;29.00;;;;;;4975469;28;20459;-49
2023/09/20 13:08:50;;;;;;;1.00;0.30;;;30.10;29.40;;;;;;4975782;28;20255;-52
2023/09/20 13:11:17;;;;;;;0.97;0.30;;;30.00;29.80;;;;;;4975402;28;20437;-52
2023/09/20 13:13:43;;;;;;;1.27;0.67;;;30.00;29.80;;;;;;4975413;28;20259;-50
2023/09/20 13:16:12;;;;;;;0.93;0.30;;;30.00;30.00;;;;;;4975375;28;20415;-50
2023/09/20 13:18:38;;;;;;;1.00;0.40;;;30.00;29.60;;;;;;4975351;28;20422;-53
2023/09/20 13:21:04;;;;;;;1.10;0.40;;;29.90;29.00;;;;;;4975258;28;20420;-51
2023/09/20 13:23:30;;;;;;;1.10;0.63;;;29.80;28.40;;;;;;4975127;28;20419;-50
2023/09/20 13:25:56;;;;;;;1.63;0.70;;;29.70;29.00;;;;;;4974998;28;20463;-53
2023/09/20 13:28:22;;;;;;;1.70;0.60;;;29.70;29.30;;;;;;4975338;28;20826;-50
2023/09/20 13:30:48;;;;;;;1.00;0.30;;;29.60;29.10;;;;;;4973907;28;20913;-49
2023/09/20 13:33:14;;;;;;;1.00;0.30;;;29.60;28.50;;;;;;4974962;28;20172;-53
2023/09/20 13:35:40;;;;;;;1.10;0.57;;;29.50;29.20;;;;;;4975262;28;20412;-49
2023/09/20 13:38:06;;;;;;;1.00;0.43;;;29.50;29.30;;;;;;4975101;28;20460;-49